Aérodrome :
LOGIN :

S'inscrire | Disclaimer

   EN    FR    IT 

 










Légende :    VFR   VFR Marginal   IFR   IFR Intensif   IFR Très Intensif
Visi : 
Plafond : 
>= 8 km
>= 3000ft
5 à 8 km
1000 à 3000 ft
1500m à 5 km
500 à 1000 ft
800 à 1500m
200 à 500 ft
< 800m
< 200 ft
Symboles :   Orages  Brouillard  Fortes neiges  Fortes précipitations  Vent > 20 kt
SIGMETs :   Divers  Orages  Givrage  Turbulence  Onde Orograph.  Cendres Volcan.







- Altitude de l'aérodrome : 538 ft
- Code IATA : TNF
- Voir les cartes d'approche


LFPN - Toussus Le Noble

DERNIER METAR :
  • 191300Z AUTO 01008KT 340V050 CAVOK 17/11 Q1022 NOSIG

METARs EXPIRÉS :
  • 191230Z AUTO 35010KT CAVOK 17/11 Q1023 NOSIG
  • 191200Z AUTO 36011KT 8000 NSC 17/11 Q1023 NOSIG
  • 191130Z AUTO 01007KT 340V040 7000 NSC 16/11 Q1023 NOSIG
  • 191100Z AUTO 35007KT 310V040 6000 FEW013 15/11 Q1023 NOSIG
  • 191030Z AUTO 34006KT 300V010 5000 BR FEW011 14/11 Q1023 NOSIG

TAF TAF LFPN
Valide du 19 à 12h jusqu'au 19 à 21h UTC


191100Z 1912/1921 02007KT 8000 FEW015
BECMG 1912/1915 CAVOK
ATIS : +33 1 39 56 54 70
Pas de NOTAMs connus pour ce terrain.



MET'MAP, la Météo Aéronautique d'un coup d'oeil ! - Copyright ORBIFLY Décembre 2007 - Disclaimer

ORBIFLY MET'MAP TEAM :

Programmation & Développement : Alexandra Zaïnal
Conception & Développement : Baudouin d'Aumeries
Co-Programmation & Développement : Marc-Olivier Méhu
Soutien technique & logistique : Manuel Goepfert

Contact : metmap@orbifly.com




SOURCES & CREDITS :

   NOAA